Time;durP1;ratioP1;P1;durP2;ratioP2;P2;SDS_P1;SDS_P2;PMS_P1;PMS_P2;Temp;Humidity;BMP_temperature;BMP_pressure;BME280_temperature;BME280_humidity;BME280_pressure;Samples;Min_cycle;Max_cycle;Signal;HPM_P1;HPM_P2
2022/10/29 00:01:56;;;;;;;10.43;2.78;;;13.30;99.90;;;;;;5117734;28;20058;-65
2022/10/29 00:04:23;;;;;;;12.70;3.10;;;13.20;99.90;;;;;;5100222;28;20056;-65
2022/10/29 00:06:50;;;;;;;21.13;4.20;;;13.20;99.90;;;;;;5117710;28;20032;-64
2022/10/29 00:09:17;;;;;;;18.30;3.20;;;13.20;99.90;;;;;;5117742;28;20036;-65
2022/10/29 00:11:43;;;;;;;11.40;3.85;;;13.20;99.90;;;;;;5117962;28;20028;-65
2022/10/29 00:14:10;;;;;;;15.70;3.30;;;13.10;99.90;;;;;;5099990;28;20028;-65
2022/10/29 00:16:38;;;;;;;11.15;3.10;;;13.10;99.90;;;;;;5117249;28;20071;-65
2022/10/29 00:19:05;;;;;;;14.70;3.58;;;13.20;99.90;;;;;;5129553;28;20091;-65
2022/10/29 00:21:33;;;;;;;17.75;2.40;;;13.10;99.90;;;;;;5117439;28;20063;-66
2022/10/29 00:24:00;;;;;;;13.40;3.65;;;13.10;99.90;;;;;;5116841;28;20055;-66
2022/10/29 00:26:27;;;;;;;20.45;3.22;;;13.10;99.90;;;;;;5117274;28;20104;-66
2022/10/29 00:28:55;;;;;;;10.45;2.40;;;13.20;99.90;;;;;;5117456;28;20075;-65
2022/10/29 00:31:24;;;;;;;10.93;2.55;;;13.20;99.90;;;;;;5117091;28;20028;-65
2022/10/29 00:33:52;;;;;;;12.63;3.35;;;13.20;99.90;;;;;;5117441;28;20054;-65
2022/10/29 00:36:21;;;;;;;18.90;3.38;;;13.30;99.90;;;;;;5083301;28;20055;-65
2022/10/29 00:38:48;;;;;;;15.80;2.05;;;13.30;99.90;;;;;;5099973;28;20035;-65
2022/10/29 00:41:16;;;;;;;9.55;2.45;;;13.30;99.90;;;;;;5115782;28;20068;-65
2022/10/29 00:43:48;;;;;;;12.98;2.53;;;13.30;99.90;;;;;;5114175;28;20055;-65
2022/10/29 00:46:28;;;;;;;15.93;3.10;;;13.30;99.90;;;;;;5115680;28;20043;-65
2022/10/29 00:48:55;;;;;;;14.40;3.92;;;13.30;99.90;;;;;;5116341;28;20050;-65
2022/10/29 00:51:21;;;;;;;19.05;3.33;;;13.40;99.90;;;;;;5099098;28;20051;-65
2022/10/29 00:53:51;;;;;;;8.57;2.55;;;13.40;99.90;;;;;;5099597;28;20036;-65
2022/10/29 00:56:19;;;;;;;19.63;3.10;;;13.40;99.90;;;;;;5116515;28;20059;-65
2022/10/29 00:58:46;;;;;;;12.88;2.88;;;13.40;99.90;;;;;;5099822;28;20095;-65
2022/10/29 01:01:13;;;;;;;11.60;2.10;;;13.50;99.90;;;;;;5116273;28;20084;-65
2022/10/29 01:03:40;;;;;;;13.57;2.80;;;13.50;99.90;;;;;;5115930;28;20050;-65
2022/10/29 01:06:07;;;;;;;12.18;2.70;;;13.50;99.90;;;;;;5116810;28;20067;-65
2022/10/29 01:08:33;;;;;;;12.43;2.78;;;13.50;99.90;;;;;;5116487;28;20105;-65
2022/10/29 01:11:28;;;;;;;9.65;2.50;;;13.50;99.90;;;;;;5117171;28;20028;-65
2022/10/29 01:14:04;;;;;;;;;;;13.60;99.90;;;;;;5100127;28;20063;-65
2022/10/29 01:16:56;;;;;;;12.38;2.38;;;13.60;99.90;;;;;;5116901;28;19987;-65
2022/10/29 01:19:38;;;;;;;15.13;2.65;;;13.60;99.90;;;;;;5124348;28;20063;-65
2022/10/29 01:22:34;;;;;;;8.57;2.67;;;13.60;99.90;;;;;;5137487;28;20087;-65
2022/10/29 01:25:12;;;;;;;14.63;2.17;;;13.70;99.90;;;;;;5102845;28;20063;-65
2022/10/29 01:28:07;;;;;;;10.90;2.40;;;13.70;99.90;;;;;;5137111;28;20051;-67
2022/10/29 01:31:12;;;;;;;12.75;2.67;;;13.80;99.90;;;;;;5137173;28;20071;-65
2022/10/29 01:33:42;;;;;;;13.30;2.30;;;13.80;99.90;;;;;;5018594;28;20126;-65
2022/10/29 01:36:39;;;;;;;11.15;2.45;;;13.80;99.90;;;;;;5118894;28;20103;-65
2022/10/29 01:39:36;;;;;;;10.73;2.78;;;13.80;99.90;;;;;;5115639;28;20139;-65
2022/10/29 01:42:14;;;;;;;17.33;2.55;;;13.80;99.90;;;;;;5119532;28;20063;-65
2022/10/29 01:44:59;;;;;;;14.20;2.80;;;13.80;99.90;;;;;;5119522;28;20070;-65
2022/10/29 01:47:27;;;;;;;14.75;2.80;;;13.90;99.90;;;;;;5103868;28;20028;-65
2022/10/29 01:49:58;;;;;;;10.48;2.10;;;13.90;99.90;;;;;;5102383;28;20051;-65
2022/10/29 01:52:25;;;;;;;16.38;2.30;;;13.90;99.90;;;;;;5103076;28;20091;-64
2022/10/29 01:54:52;;;;;;;14.07;3.03;;;13.90;99.90;;;;;;5102512;28;20052;-65
2022/10/29 01:57:37;;;;;;;15.18;2.55;;;13.90;99.90;;;;;;5136615;28;20093;-64
2022/10/29 02:00:11;;;;;;;6.60;2.13;;;13.90;99.90;;;;;;5136841;28;20059;-65
2022/10/29 02:02:53;;;;;;;13.48;2.33;;;13.90;99.90;;;;;;5119696;28;20046;-64
2022/10/29 02:05:58;;;;;;;12.05;2.60;;;13.90;99.90;;;;;;5106015;28;20051;-64
2022/10/29 02:08:47;;;;;;;14.30;2.65;;;14.00;99.90;;;;;;5140582;28;20085;-65
2022/10/29 02:11:25;;;;;;;14.18;2.28;;;14.00;99.90;;;;;;5140617;28;20120;-65
2022/10/29 02:14:01;;;;;;;13.70;2.92;;;14.00;99.90;;;;;;5123019;28;20040;-65
2022/10/29 02:16:28;;;;;;;11.48;2.17;;;14.00;99.90;;;;;;5106434;28;20032;-64
2022/10/29 02:18:56;;;;;;;18.15;2.72;;;14.00;99.90;;;;;;5105826;28;20055;-64
2022/10/29 02:21:22;;;;;;;16.20;3.08;;;14.00;99.90;;;;;;5122882;28;20034;-65
2022/10/29 02:23:49;;;;;;;8.25;1.95;;;14.00;99.90;;;;;;5105862;28;20091;-65
2022/10/29 02:26:16;;;;;;;12.02;2.50;;;14.00;99.90;;;;;;5105550;28;20103;-65
2022/10/29 02:28:42;;;;;;;10.57;2.53;;;14.00;99.90;;;;;;5122732;28;20087;-64
2022/10/29 02:31:09;;;;;;;9.32;2.20;;;14.00;99.90;;;;;;5122334;28;20039;-64
2022/10/29 02:33:36;;;;;;;13.35;2.90;;;14.00;99.90;;;;;;5122590;28;21014;-65
2022/10/29 02:36:03;;;;;;;9.57;2.15;;;14.00;99.90;;;;;;5139666;28;20039;-65
2022/10/29 02:38:30;;;;;;;10.50;2.05;;;14.00;99.90;;;;;;5122527;28;20062;-65
2022/10/29 02:40:56;;;;;;;13.57;2.30;;;14.00;99.90;;;;;;5139962;28;20035;-67
2022/10/29 02:43:23;;;;;;;12.43;2.42;;;14.00;99.90;;;;;;5122338;28;20039;-65
2022/10/29 02:45:57;;;;;;;10.45;2.53;;;14.10;99.90;;;;;;5105508;28;20067;-64
2022/10/29 02:48:24;;;;;;;18.25;2.35;;;14.10;99.90;;;;;;5107240;28;20052;-65
2022/10/29 02:50:51;;;;;;;11.82;2.50;;;14.10;99.90;;;;;;5138619;28;20051;-64
2022/10/29 02:53:18;;;;;;;14.60;2.40;;;14.10;99.90;;;;;;5138927;28;20051;-65
2022/10/29 02:55:44;;;;;;;17.98;2.53;;;14.10;99.90;;;;;;5138768;28;20047;-64
2022/10/29 02:58:11;;;;;;;13.23;2.55;;;14.10;99.90;;;;;;5139541;28;20058;-64
2022/10/29 03:00:38;;;;;;;17.58;2.80;;;14.10;99.90;;;;;;5139508;28;20039;-64
2022/10/29 03:03:04;;;;;;;10.40;2.20;;;14.10;99.90;;;;;;5139267;28;20035;-64
2022/10/29 03:05:31;;;;;;;11.80;1.98;;;14.10;99.90;;;;;;5139544;28;20032;-64
2022/10/29 03:07:58;;;;;;;15.27;2.45;;;14.10;99.90;;;;;;5139078;28;20107;-65
2022/10/29 03:10:24;;;;;;;15.60;2.75;;;14.20;99.90;;;;;;5122077;28;20055;-64
2022/10/29 03:12:51;;;;;;;11.32;2.35;;;14.10;99.90;;;;;;5139378;28;20032;-64
2022/10/29 03:15:18;;;;;;;17.15;3.28;;;14.10;99.90;;;;;;5138367;28;20028;-65
2022/10/29 03:17:45;;;;;;;15.05;2.92;;;14.20;99.90;;;;;;5121555;28;20058;-64
2022/10/29 03:20:12;;;;;;;13.27;2.53;;;14.20;99.90;;;;;;5139213;28;20043;-64
2022/10/29 03:22:39;;;;;;;17.02;2.78;;;14.20;99.90;;;;;;5139459;28;20055;-65
2022/10/29 03:25:06;;;;;;;15.38;2.35;;;14.20;99.90;;;;;;5139038;28;20047;-65
2022/10/29 03:27:43;;;;;;;15.40;2.17;;;14.20;99.90;;;;;;5139221;28;20040;-65
2022/10/29 03:30:12;;;;;;;14.68;1.95;;;14.20;99.90;;;;;;5122569;28;20087;-65
2022/10/29 03:32:40;;;;;;;13.63;2.25;;;14.30;99.90;;;;;;5139113;28;20053;-65
2022/10/29 03:35:07;;;;;;;9.65;2.58;;;14.20;99.90;;;;;;5121526;28;20657;-65
2022/10/29 03:37:34;;;;;;;15.02;3.13;;;14.30;99.90;;;;;;5121491;28;20051;-65
2022/10/29 03:40:01;;;;;;;11.13;2.22;;;14.30;99.90;;;;;;5121505;28;20374;-67
2022/10/29 03:42:30;;;;;;;9.07;1.52;;;14.30;99.90;;;;;;5138903;28;20111;-65
2022/10/29 03:45:00;;;;;;;11.35;2.65;;;14.30;99.90;;;;;;5121533;28;20035;-65
2022/10/29 03:47:27;;;;;;;13.93;2.63;;;14.30;99.90;;;;;;5138277;28;20097;-65
2022/10/29 03:49:54;;;;;;;12.65;2.05;;;14.20;99.90;;;;;;5104262;28;20044;-65
2022/10/29 03:52:20;;;;;;;10.07;2.38;;;14.30;99.90;;;;;;5121269;28;20023;-65
2022/10/29 03:54:47;;;;;;;16.85;1.90;;;14.30;99.90;;;;;;5138562;28;20108;-65
2022/10/29 03:57:14;;;;;;;17.35;2.35;;;14.30;99.90;;;;;;5121078;28;20038;-65
2022/10/29 03:59:41;;;;;;;15.20;2.47;;;14.30;99.90;;;;;;5138599;28;20032;-65
2022/10/29 04:02:08;;;;;;;14.07;2.17;;;14.40;99.90;;;;;;5138201;28;20046;-65
2022/10/29 04:04:35;;;;;;;8.50;2.03;;;14.40;99.90;;;;;;5125320;28;20103;-65
2022/10/29 04:07:02;;;;;;;10.07;1.80;;;14.40;99.90;;;;;;5100321;28;20095;-65
2022/10/29 04:09:29;;;;;;;9.77;2.13;;;14.30;99.90;;;;;;5117451;28;20088;-65
2022/10/29 04:11:55;;;;;;;9.77;2.05;;;14.40;99.90;;;;;;5100593;28;20047;-65
2022/10/29 04:14:22;;;;;;;11.05;2.13;;;14.30;99.90;;;;;;5117761;28;20028;-65
2022/10/29 04:16:49;;;;;;;6.80;1.42;;;14.40;99.90;;;;;;5117168;28;20058;-65
2022/10/29 04:19:16;;;;;;;12.88;2.28;;;14.40;99.90;;;;;;5117460;28;20036;-66
2022/10/29 04:21:42;;;;;;;10.00;2.97;;;14.40;99.90;;;;;;5100179;28;20047;-66
2022/10/29 04:24:29;;;;;;;11.52;2.22;;;14.50;99.90;;;;;;5117575;28;20096;-65
2022/10/29 04:27:16;;;;;;;9.48;1.35;;;14.40;99.90;;;;;;5117040;28;20115;-66
2022/10/29 04:30:03;;;;;;;10.27;1.55;;;14.40;99.90;;;;;;5117002;28;20024;-67
2022/10/29 04:32:29;;;;;;;6.05;1.52;;;14.40;99.90;;;;;;5117301;28;20036;-66
2022/10/29 04:34:56;;;;;;;10.60;1.73;;;14.50;99.90;;;;;;5117461;28;20031;-65
2022/10/29 04:37:23;;;;;;;9.82;2.42;;;14.40;99.90;;;;;;5116760;28;20096;-66
2022/10/29 04:39:50;;;;;;;8.85;2.42;;;14.40;99.90;;;;;;5117380;28;20036;-66
2022/10/29 04:42:16;;;;;;;14.30;2.38;;;14.40;99.90;;;;;;5117429;28;20067;-66
2022/10/29 04:44:43;;;;;;;10.57;1.88;;;14.40;99.90;;;;;;5117571;28;20099;-66
2022/10/29 04:47:10;;;;;;;9.23;1.80;;;14.50;99.90;;;;;;5117131;28;20051;-67
2022/10/29 04:49:37;;;;;;;9.63;1.50;;;14.50;99.90;;;;;;5117095;28;20036;-66
2022/10/29 04:52:03;;;;;;;10.45;2.20;;;14.50;99.90;;;;;;5099741;28;20028;-66
2022/10/29 04:54:30;;;;;;;17.23;2.17;;;14.50;99.90;;;;;;5100091;28;20059;-66
2022/10/29 04:56:57;;;;;;;10.20;1.60;;;14.50;99.90;;;;;;5116398;28;20052;-67
2022/10/29 04:59:24;;;;;;;10.23;2.45;;;14.50;99.90;;;;;;5116527;28;20087;-67
2022/10/29 05:01:50;;;;;;;7.25;1.80;;;14.50;99.90;;;;;;5099608;28;20107;-67
2022/10/29 05:04:17;;;;;;;11.55;2.40;;;14.50;99.90;;;;;;5099542;28;20087;-67
2022/10/29 05:06:44;;;;;;;17.73;2.38;;;14.50;99.90;;;;;;5116805;28;20066;-67
2022/10/29 05:09:10;;;;;;;10.02;1.80;;;14.40;99.90;;;;;;5116611;28;20092;-67
2022/10/29 05:11:37;;;;;;;14.50;2.35;;;14.40;99.90;;;;;;5117089;28;20043;-67
2022/10/29 05:14:04;;;;;;;10.15;1.92;;;14.40;99.90;;;;;;5099254;28;20107;-67
2022/10/29 05:16:31;;;;;;;7.85;1.55;;;14.50;99.90;;;;;;5115542;28;20087;-67
2022/10/29 05:18:58;;;;;;;12.93;2.05;;;14.50;99.90;;;;;;5097950;28;20063;-67
2022/10/29 05:21:25;;;;;;;14.23;2.85;;;14.50;99.90;;;;;;5098265;28;20096;-67
2022/10/29 05:23:51;;;;;;;6.97;1.80;;;14.50;99.90;;;;;;5115748;28;20032;-67
2022/10/29 05:26:18;;;;;;;14.75;1.92;;;14.50;99.90;;;;;;5115196;28;20066;-67
2022/10/29 05:28:49;;;;;;;20.30;3.40;;;14.40;99.90;;;;;;5115587;28;20024;-67
2022/10/29 05:31:15;;;;;;;6.80;1.00;;;14.40;99.90;;;;;;5116737;28;20054;-67
2022/10/29 05:33:42;;;;;;;11.38;2.20;;;14.40;99.90;;;;;;5099435;28;20055;-67
2022/10/29 05:36:09;;;;;;;9.32;1.98;;;14.40;99.90;;;;;;5066215;28;20051;-67
2022/10/29 05:38:36;;;;;;;16.65;2.88;;;14.40;99.90;;;;;;5084921;28;20084;-66
2022/10/29 05:41:03;;;;;;;11.75;2.53;;;14.40;99.90;;;;;;5120237;28;20067;-67
2022/10/29 05:43:30;;;;;;;13.73;2.45;;;14.40;99.90;;;;;;5103333;28;20056;-67
2022/10/29 05:45:56;;;;;;;7.10;2.25;;;14.30;99.90;;;;;;5120190;28;20052;-66
2022/10/29 05:48:23;;;;;;;11.55;2.30;;;14.30;99.90;;;;;;5103034;28;20083;-66
2022/10/29 05:50:50;;;;;;;14.50;2.42;;;14.30;99.90;;;;;;5120461;28;20092;-66
2022/10/29 05:53:17;;;;;;;13.65;3.40;;;14.40;99.90;;;;;;5102764;28;20055;-66
2022/10/29 05:55:43;;;;;;;10.77;2.20;;;14.40;99.90;;;;;;5120344;28;20039;-67
2022/10/29 05:58:11;;;;;;;13.30;4.13;;;14.40;99.90;;;;;;5120277;28;20088;-67
2022/10/29 06:00:40;;;;;;;14.30;2.35;;;14.40;99.90;;;;;;5102984;28;20095;-68
2022/10/29 06:03:27;;;;;;;8.73;2.15;;;14.50;99.90;;;;;;5102601;28;20096;-67
2022/10/29 06:05:54;;;;;;;14.57;2.00;;;14.50;99.90;;;;;;5113118;28;20059;-66
2022/10/29 06:08:20;;;;;;;14.07;2.80;;;14.50;99.90;;;;;;5119636;28;20035;-66
2022/10/29 06:10:47;;;;;;;9.60;2.72;;;14.50;99.90;;;;;;5102547;28;20032;-66
2022/10/29 06:13:16;;;;;;;12.35;2.65;;;14.50;99.90;;;;;;5102277;28;20024;-66
2022/10/29 06:15:47;;;;;;;19.42;2.33;;;14.50;99.90;;;;;;5069662;28;20087;-66
2022/10/29 06:18:14;;;;;;;12.75;3.10;;;14.60;99.90;;;;;;5102559;28;20088;-66
2022/10/29 06:20:42;;;;;;;13.60;2.53;;;14.50;99.90;;;;;;5101980;28;20074;-66
2022/10/29 06:23:09;;;;;;;10.38;2.42;;;14.50;99.90;;;;;;5119805;28;20040;-67
2022/10/29 06:25:36;;;;;;;11.10;2.72;;;14.60;99.90;;;;;;5085900;28;20058;-66
2022/10/29 06:28:04;;;;;;;11.57;2.88;;;14.50;99.90;;;;;;5118816;28;20060;-67
2022/10/29 06:30:32;;;;;;;13.05;2.78;;;14.50;99.90;;;;;;5085233;28;20032;-66
2022/10/29 06:32:59;;;;;;;12.45;2.70;;;14.60;99.90;;;;;;5119777;28;20067;-67
2022/10/29 06:35:26;;;;;;;12.98;2.83;;;14.60;99.90;;;;;;5119760;28;20021;-66
2022/10/29 06:37:53;;;;;;;8.57;2.28;;;14.60;99.90;;;;;;5102127;28;20050;-66
2022/10/29 06:40:20;;;;;;;12.57;2.67;;;14.60;99.90;;;;;;5119124;28;20059;-67
2022/10/29 06:42:47;;;;;;;7.13;2.10;;;14.70;99.90;;;;;;5118917;28;20087;-66
2022/10/29 06:45:14;;;;;;;11.45;2.50;;;14.70;99.90;;;;;;5119496;28;20265;-66
2022/10/29 06:47:41;;;;;;;15.93;3.60;;;14.70;99.90;;;;;;5118287;28;20035;-66
2022/10/29 06:50:09;;;;;;;9.75;2.58;;;14.70;99.90;;;;;;5119121;28;20036;-66
2022/10/29 06:52:36;;;;;;;7.00;2.25;;;14.70;99.90;;;;;;5118851;28;20126;-66
2022/10/29 06:55:03;;;;;;;11.32;2.35;;;14.70;99.90;;;;;;5101904;28;20032;-66
2022/10/29 06:57:30;;;;;;;14.80;2.72;;;14.70;99.90;;;;;;5101601;28;20039;-66
2022/10/29 06:59:57;;;;;;;16.98;2.83;;;14.70;99.90;;;;;;5084975;28;20104;-66
2022/10/29 07:02:27;;;;;;;13.02;2.63;;;14.80;99.90;;;;;;5102244;28;20032;-66
2022/10/29 07:04:54;;;;;;;11.43;2.38;;;14.80;99.90;;;;;;5119005;28;20047;-66
2022/10/29 07:07:21;;;;;;;10.50;2.88;;;14.80;99.90;;;;;;5118690;28;20035;-66
2022/10/29 07:09:53;;;;;;;14.27;2.38;;;14.80;99.90;;;;;;5117658;28;20048;-67
2022/10/29 07:12:20;;;;;;;11.77;2.65;;;14.90;99.90;;;;;;5066484;28;20032;-67
2022/10/29 07:14:47;;;;;;;8.15;3.00;;;14.90;99.90;;;;;;5082452;28;20040;-69
2022/10/29 07:17:14;;;;;;;10.82;4.18;;;14.90;99.90;;;;;;5099206;28;20104;-67
2022/10/29 07:19:40;;;;;;;9.75;3.40;;;15.00;99.90;;;;;;4781574;28;9999718;-67
2022/10/29 07:22:07;;;;;;;14.02;3.33;;;15.00;99.90;;;;;;5136677;28;20054;-67
2022/10/29 07:24:34;;;;;;;11.90;5.13;;;15.10;99.90;;;;;;5136950;28;20056;-66
2022/10/29 07:27:01;;;;;;;9.93;3.85;;;15.10;99.90;;;;;;5136769;28;20070;-68
2022/10/29 07:29:28;;;;;;;9.88;2.60;;;15.10;99.90;;;;;;5102510;28;20031;-67
2022/10/29 07:31:55;;;;;;;14.50;3.92;;;15.20;99.90;;;;;;5119250;28;20371;-69
2022/10/29 07:34:22;;;;;;;19.17;3.90;;;15.20;99.90;;;;;;5136764;28;20073;-66
2022/10/29 07:36:49;;;;;;;11.68;3.58;;;15.20;99.90;;;;;;5136446;28;20051;-66
2022/10/29 07:39:16;;;;;;;12.82;3.28;;;15.30;99.90;;;;;;5136214;28;20039;-67
2022/10/29 07:41:43;;;;;;;15.50;3.70;;;15.30;99.90;;;;;;5136904;28;20047;-66
2022/10/29 07:44:10;;;;;;;12.63;3.35;;;15.40;99.90;;;;;;5119002;28;20040;-68
2022/10/29 07:46:37;;;;;;;14.43;3.97;;;15.40;99.90;;;;;;5118070;28;20043;-67
2022/10/29 07:49:04;;;;;;;12.27;3.95;;;15.40;99.90;;;;;;5101288;28;20066;-68
2022/10/29 07:51:31;;;;;;;20.63;4.00;;;15.50;99.90;;;;;;5137174;28;20032;-67
2022/10/29 07:53:58;;;;;;;15.77;3.10;;;15.50;99.90;;;;;;5102212;28;20099;-66
2022/10/29 07:56:25;;;;;;;14.02;4.03;;;15.60;99.90;;;;;;5118662;28;20028;-67
2022/10/29 07:58:52;;;;;;;15.68;4.07;;;15.60;99.90;;;;;;5117361;28;20078;-66
2022/10/29 08:01:19;;;;;;;12.43;3.70;;;15.70;99.90;;;;;;5135691;28;20097;-67
2022/10/29 08:03:48;;;;;;;16.70;4.15;;;15.70;99.90;;;;;;5136107;28;20054;-66
2022/10/29 08:06:14;;;;;;;12.38;3.55;;;15.80;99.90;;;;;;5118857;28;20055;-66
2022/10/29 08:08:41;;;;;;;16.00;4.25;;;15.80;99.90;;;;;;5135944;28;20031;-67
2022/10/29 08:11:08;;;;;;;13.88;4.82;;;15.90;99.90;;;;;;5135930;28;20051;-67
2022/10/29 08:13:35;;;;;;;13.30;4.00;;;16.00;99.90;;;;;;5118460;28;20027;-67
2022/10/29 08:16:01;;;;;;;13.50;3.78;;;16.00;99.90;;;;;;5118130;28;20059;-67
2022/10/29 08:18:28;;;;;;;13.13;3.88;;;16.10;99.90;;;;;;5127137;28;20095;-67
2022/10/29 08:20:55;;;;;;;12.90;3.88;;;16.20;99.90;;;;;;5117771;28;20055;-67
2022/10/29 08:23:22;;;;;;;23.33;5.30;;;16.20;99.90;;;;;;5100896;28;20111;-69
2022/10/29 08:25:49;;;;;;;15.77;5.38;;;16.20;99.90;;;;;;5134956;28;20035;-67
2022/10/29 08:28:16;;;;;;;13.57;5.10;;;16.30;99.90;;;;;;5117101;28;20099;-67
2022/10/29 08:30:44;;;;;;;21.75;6.13;;;16.40;99.90;;;;;;5134364;28;20155;-67
2022/10/29 08:33:10;;;;;;;11.27;3.90;;;16.40;99.90;;;;;;5100373;28;20070;-67
2022/10/29 08:35:37;;;;;;;14.75;4.30;;;16.50;99.90;;;;;;5134597;28;20044;-67
2022/10/29 08:38:04;;;;;;;15.98;3.78;;;16.60;99.90;;;;;;5115298;28;20044;-67
2022/10/29 08:40:52;;;;;;;13.60;4.38;;;16.70;99.90;;;;;;5129928;28;20127;-67
2022/10/29 08:43:28;;;;;;;14.27;4.18;;;16.70;99.90;;;;;;5119454;28;20059;-67
2022/10/29 08:45:55;;;;;;;13.55;4.15;;;16.80;99.90;;;;;;5134861;28;20039;-67
2022/10/29 08:48:21;;;;;;;13.05;4.60;;;16.90;99.90;;;;;;5100542;28;20059;-67
2022/10/29 08:51:00;;;;;;;12.02;3.83;;;16.90;99.90;;;;;;5117556;28;20027;-67
2022/10/29 08:53:36;;;;;;;17.65;4.15;;;17.00;99.90;;;;;;5135489;28;20042;-66
2022/10/29 08:56:05;;;;;;;17.95;4.45;;;17.10;99.90;;;;;;5104858;28;20141;-66
2022/10/29 08:59:04;;;;;;;10.25;4.00;;;17.20;99.90;;;;;;5080162;28;20063;-66
2022/10/29 09:01:31;;;;;;;10.82;3.70;;;17.20;99.90;;;;;;5098527;28;20032;-67
2022/10/29 09:03:58;;;;;;;16.25;4.80;;;17.30;99.90;;;;;;5116210;28;20027;-67
2022/10/29 09:06:38;;;;;;;13.55;4.38;;;17.40;99.90;;;;;;5135263;28;20059;-67
2022/10/29 09:09:28;;;;;;;20.15;5.30;;;17.40;99.90;;;;;;5117221;28;20031;-67
2022/10/29 09:12:04;;;;;;;17.50;4.35;;;17.60;99.90;;;;;;5118941;28;20039;-67
2022/10/29 09:14:49;;;;;;;16.08;4.53;;;17.70;99.90;;;;;;5138174;28;20063;-66
2022/10/29 09:17:19;;;;;;;14.45;4.47;;;17.70;99.90;;;;;;5138726;28;20055;-66
2022/10/29 09:20:05;;;;;;;13.98;5.13;;;17.80;99.90;;;;;;5118261;28;20099;-67
2022/10/29 09:22:36;;;;;;;17.75;5.03;;;17.90;99.90;;;;;;5100386;28;20083;-66
2022/10/29 09:25:25;;;;;;;14.63;4.45;;;18.00;99.90;;;;;;5118115;28;20059;-67
2022/10/29 09:28:01;;;;;;;15.90;4.18;;;18.10;99.90;;;;;;5067936;28;20043;-66
2022/10/29 09:30:29;;;;;;;14.85;4.75;;;18.20;99.90;;;;;;5118607;28;20071;-66
2022/10/29 09:33:06;;;;;;;16.90;4.78;;;18.20;99.90;;;;;;5084047;28;20054;-66
2022/10/29 09:35:38;;;;;;;16.45;4.97;;;18.30;99.90;;;;;;5084810;28;20113;-66
2022/10/29 09:38:14;;;;;;;14.73;5.43;;;18.40;99.90;;;;;;5100410;28;20039;-66
2022/10/29 09:40:42;;;;;;;16.88;4.65;;;18.50;99.90;;;;;;5084175;28;20127;-66
2022/10/29 09:43:15;;;;;;;17.25;5.15;;;18.60;99.90;;;;;;5100244;28;20042;-66
2022/10/29 09:45:47;;;;;;;16.80;3.97;;;18.70;99.90;;;;;;5117241;28;20047;-65
2022/10/29 09:48:19;;;;;;;21.75;4.80;;;18.70;99.90;;;;;;5100477;28;20079;-67
2022/10/29 09:51:09;;;;;;;16.30;4.00;;;18.70;99.90;;;;;;5084375;28;20032;-66
2022/10/29 09:53:36;;;;;;;16.17;5.28;;;18.70;99.90;;;;;;5117650;28;20108;-65
2022/10/29 09:56:07;;;;;;;14.80;4.75;;;18.70;99.90;;;;;;5083613;28;20044;-65
2022/10/29 09:58:36;;;;;;;14.95;4.10;;;18.80;99.90;;;;;;5067098;28;20028;-66
2022/10/29 10:01:03;;;;;;;16.10;4.35;;;18.80;99.90;;;;;;5100361;28;20043;-68
2022/10/29 10:03:37;;;;;;;13.55;4.55;;;19.00;99.90;;;;;;5117453;28;20066;-66
2022/10/29 10:06:06;;;;;;;14.65;4.38;;;19.00;99.90;;;;;;5117603;28;20070;-66
2022/10/29 10:08:33;;;;;;;12.90;4.13;;;19.00;99.90;;;;;;5099611;28;20071;-67
2022/10/29 10:11:01;;;;;;;12.15;4.43;;;19.10;99.90;;;;;;5066313;28;20080;-67
2022/10/29 10:13:29;;;;;;;19.58;6.47;;;19.20;99.90;;;;;;5083760;28;20039;-66
2022/10/29 10:15:58;;;;;;;16.17;4.75;;;19.20;99.90;;;;;;5066902;28;20076;-67
2022/10/29 10:18:26;;;;;;;15.98;5.63;;;19.20;99.90;;;;;;5099909;28;20040;-67
2022/10/29 10:21:04;;;;;;;11.68;4.07;;;19.30;99.90;;;;;;5083004;28;20035;-67
2022/10/29 10:23:53;;;;;;;23.27;5.03;;;19.30;99.90;;;;;;5099059;28;20035;-66
2022/10/29 10:26:28;;;;;;;17.67;4.15;;;19.30;99.90;;;;;;5099995;28;20032;-67
2022/10/29 10:29:12;;;;;;;16.75;5.18;;;19.30;99.90;;;;;;5083303;28;20096;-66
2022/10/29 10:31:40;;;;;;;17.55;4.65;;;19.40;99.90;;;;;;5083194;28;20103;-66
2022/10/29 10:34:17;;;;;;;17.88;4.53;;;19.40;99.90;;;;;;5082594;28;20104;-67
2022/10/29 10:36:56;;;;;;;10.63;4.13;;;19.40;99.90;;;;;;5083630;28;20066;-67
2022/10/29 10:39:37;;;;;;;15.60;4.95;;;19.50;99.90;;;;;;5084041;28;20043;-66
2022/10/29 10:42:24;;;;;;;11.15;5.10;;;19.60;99.90;;;;;;5099058;28;20070;-67
2022/10/29 10:45:13;;;;;;;15.63;4.65;;;19.70;99.90;;;;;;5116791;28;20033;-67
2022/10/29 10:47:45;;;;;;;15.48;4.88;;;19.80;99.90;;;;;;5116124;28;20046;-67
2022/10/29 10:50:24;;;;;;;28.85;5.57;;;19.90;99.90;;;;;;5082600;28;20032;-66
2022/10/29 10:52:53;;;;;;;19.55;5.13;;;19.90;99.90;;;;;;5098397;28;20063;-66
2022/10/29 10:55:33;;;;;;;12.63;4.70;;;19.90;99.90;;;;;;5083273;28;20048;-66
2022/10/29 10:58:20;;;;;;;18.65;5.13;;;20.00;99.90;;;;;;5116238;28;20028;-66
2022/10/29 11:01:27;;;;;;;9.75;4.30;;;20.10;99.90;;;;;;5098947;28;20036;-67
2022/10/29 11:04:00;;;;;;;13.73;3.72;;;20.10;99.90;;;;;;5109485;28;20065;-67
2022/10/29 11:06:35;;;;;;;15.30;4.35;;;20.20;99.90;;;;;;5099021;28;20043;-67
2022/10/29 11:09:19;;;;;;;19.65;5.97;;;20.20;99.90;;;;;;5098687;28;20038;-66
2022/10/29 11:12:05;;;;;;;17.10;4.47;;;20.10;99.90;;;;;;5115676;28;20051;-67
2022/10/29 11:14:35;;;;;;;15.60;4.32;;;20.20;99.90;;;;;;5084171;28;20068;-67
2022/10/29 11:17:04;;;;;;;20.90;3.45;;;20.20;99.90;;;;;;5082365;28;20060;-67
2022/10/29 11:19:37;;;;;;;16.27;4.20;;;20.20;99.90;;;;;;5066956;28;20028;-67
2022/10/29 11:22:33;;;;;;;16.02;3.92;;;20.20;99.90;;;;;;5098397;28;20485;-67
2022/10/29 11:25:22;;;;;;;13.80;4.40;;;20.30;99.90;;;;;;5098597;28;20088;-66
2022/10/29 11:28:18;;;;;;;15.80;5.70;;;20.20;99.90;;;;;;5084779;28;20040;-66
2022/10/29 11:30:49;;;;;;;14.13;4.70;;;20.30;99.90;;;;;;5081964;28;20070;-66
2022/10/29 11:33:16;;;;;;;23.77;5.65;;;20.30;99.90;;;;;;5082370;28;20032;-65
2022/10/29 11:35:50;;;;;;;14.30;4.20;;;20.40;99.90;;;;;;5114328;28;20100;-65
2022/10/29 11:38:39;;;;;;;17.50;5.15;;;20.40;99.90;;;;;;5115655;28;20036;-66
2022/10/29 11:41:21;;;;;;;17.88;5.82;;;20.40;99.90;;;;;;5082137;28;20067;-68
2022/10/29 11:43:48;;;;;;;16.20;4.60;;;20.40;99.90;;;;;;5115671;28;20108;-67
2022/10/29 11:46:31;;;;;;;17.38;5.10;;;20.50;99.90;;;;;;5097692;28;20091;-67
2022/10/29 11:49:14;;;;;;;21.20;5.05;;;20.50;99.90;;;;;;5082088;28;20060;-67
2022/10/29 11:51:41;;;;;;;13.65;4.93;;;20.50;99.90;;;;;;5098108;28;20092;-68
2022/10/29 11:54:32;;;;;;;12.00;4.70;;;20.60;99.90;;;;;;5116134;28;20046;-66
2022/10/29 11:57:02;;;;;;;13.02;4.00;;;20.60;99.90;;;;;;5115487;28;20091;-66
2022/10/29 11:59:54;;;;;;;18.83;4.50;;;20.70;99.90;;;;;;5081544;28;20101;-65
2022/10/29 12:02:46;;;;;;;23.50;4.75;;;20.60;99.90;;;;;;5115129;28;20032;-66
2022/10/29 12:05:27;;;;;;;9.93;3.50;;;20.70;99.90;;;;;;5100043;28;20039;-66
2022/10/29 12:08:16;;;;;;;17.10;4.13;;;20.80;99.90;;;;;;5082398;28;20055;-65
2022/10/29 12:11:04;;;;;;;16.23;4.47;;;20.90;99.90;;;;;;5115252;28;20061;-66
2022/10/29 12:13:55;;;;;;;19.98;5.13;;;20.90;99.90;;;;;;5114438;28;20187;-66
2022/10/29 12:16:27;;;;;;;14.02;4.80;;;20.90;99.90;;;;;;5097540;28;20074;-66
2022/10/29 12:19:02;;;;;;;18.88;4.35;;;20.80;99.90;;;;;;5115174;28;20061;-66
2022/10/29 12:22:01;;;;;;;10.77;4.47;;;20.80;99.90;;;;;;5097949;28;20056;-66
2022/10/29 12:24:47;;;;;;;17.60;4.95;;;20.90;99.90;;;;;;5099891;28;20027;-66
2022/10/29 12:27:21;;;;;;;14.82;4.22;;;20.90;99.90;;;;;;5082253;28;20050;-67
2022/10/29 12:29:55;;;;;;;17.10;5.75;;;21.00;99.90;;;;;;5098107;28;20035;-67
2022/10/29 12:32:28;;;;;;;16.65;5.15;;;21.00;99.90;;;;;;5115285;28;20112;-66
2022/10/29 12:35:05;;;;;;;19.58;4.97;;;21.00;99.90;;;;;;5081487;28;20092;-67
2022/10/29 12:37:36;;;;;;;16.95;4.32;;;21.10;99.90;;;;;;5097269;28;20131;-66
2022/10/29 12:40:13;;;;;;;15.25;3.85;;;21.20;99.90;;;;;;5097510;28;20028;-66
2022/10/29 12:42:40;;;;;;;12.05;4.15;;;21.20;99.90;;;;;;5115041;28;20060;-67
2022/10/29 12:45:25;;;;;;;13.85;3.97;;;21.20;99.90;;;;;;5097810;28;20356;-66
2022/10/29 12:48:08;;;;;;;13.27;3.80;;;21.20;99.90;;;;;;5121800;28;20103;-66
2022/10/29 12:50:44;;;;;;;11.88;3.92;;;21.20;99.90;;;;;;5111387;28;20067;-66
2022/10/29 12:53:30;;;;;;;14.98;3.78;;;21.20;99.90;;;;;;5125859;28;20056;-65
2022/10/29 12:55:57;;;;;;;8.40;3.92;;;21.30;99.90;;;;;;5126706;28;20031;-66
2022/10/29 12:58:51;;;;;;;10.55;3.75;;;21.40;99.90;;;;;;5089481;28;20028;-67
2022/10/29 13:01:27;;;;;;;13.05;3.50;;;21.50;99.90;;;;;;5105222;28;20031;-66
2022/10/29 13:04:30;;;;;;;14.77;4.70;;;21.50;99.90;;;;;;5125560;28;20058;-67